| Date | Time | Temp. (oF) | Dew Point (oF) | Rel. Hum. (%) | Press. (in.) | Wind Dir. | Wind Speed (mph) | Hourly Rainfall (in.) |
|
|---|---|---|---|---|---|---|---|---|---|
| 1 | 03/27 | 00:00 | 44 | 44 | 100 | 29.90 | WNW | 5 | 0.00 |
| 2 | 03/26 | 23:00 | 43 | 42 | 100 | 29.87 | NNE | 1 | 0.01 |
| 3 | 03/26 | 22:00 | 43 | 42 | 100 | 29.86 | NNE | 2 | 0.01 |
| 4 | 03/26 | 21:00 | 42 | 41 | 100 | 29.91 | E | 4 | 0.12 |
| 5 | 03/26 | 20:00 | 42 | 41 | 100 | 29.95 | ESE | 2 | 0.36 |
| 6 | 03/26 | 19:00 | 43 | 42 | 100 | 29.89 | ESE | 1 | 0.01 |
| 7 | 03/26 | 18:00 | 43 | 42 | 100 | 29.94 | N | 3 | 0.00 |
| 8 | 03/26 | 17:00 | 42 | 41 | 100 | 29.96 | NE | 7 | 0.00 |
| 9 | 03/26 | 16:00 | 42 | 41 | 100 | 30.03 | ESE | 3 | 0.00 |
| 10 | 03/26 | 15:00 | 42 | 41 | 100 | 30.06 | ENE | 7 | 0.01 |
| 11 | 03/26 | 14:00 | 41 | 41 | 100 | 30.11 | N | 4 | 0.00 |
| 12 | 03/26 | 13:00 | 40 | 40 | 100 | 30.14 | NE | 2 | 0.00 |
| 13 | 03/26 | 12:00 | 39 | 39 | 100 | 30.16 | E | 7 | 0.00 |
| 14 | 03/26 | 11:00 | 39 | 39 | 100 | 30.21 | E | 9 | 0.00 |
| 15 | 03/26 | 10:00 | 38 | 37 | 100 | 30.23 | E | 7 | 0.00 |
| 16 | 03/26 | 09:00 | 37 | 36 | 100 | 30.23 | ESE | 7 | 0.00 |
| 17 | 03/26 | 08:00 | 37 | 36 | 100 | 30.28 | E | 6 | 0.00 |
| 18 | 03/26 | 07:00 | 37 | 36 | 100 | 30.29 | NE | 11 | 0.00 |
| 19 | 03/26 | 06:00 | 37 | 36 | 97 | 30.31 | ENE | 6 | 0.00 |
| 20 | 03/26 | 05:00 | 38 | 35 | 89 | 30.30 | E | 16 | 0.00 |
| 21 | 03/26 | 04:00 | 38 | 32 | 82 | 30.31 | E | 7 | 0.00 |
| 22 | 03/26 | 03:00 | 39 | 33 | 80 | 30.31 | E | 4 | 0.00 |
| 23 | 03/26 | 02:00 | 39 | 31 | 75 | 30.32 | ESE | 8 | 0.00 |
| 24 | 03/26 | 01:00 | 39 | 30 | 71 | 30.34 | E | 3 | 0.00 |